sensor_id;sensor_type;location;lat;lon;timestamp;P1;durP1;ratioP1;P2;durP2;ratioP2
43160;SDS011;40968;52.342;5.528;2022-08-19T00:00:17;12.32;;;4.65;;
43160;SDS011;40968;52.342;5.528;2022-08-19T00:02:45;13.07;;;6.00;;
43160;SDS011;40968;52.342;5.528;2022-08-19T00:05:13;13.68;;;5.63;;
43160;SDS011;40968;52.342;5.528;2022-08-19T00:07:40;17.13;;;5.93;;
43160;SDS011;40968;52.342;5.528;2022-08-19T00:10:08;14.77;;;5.95;;
43160;SDS011;40968;52.342;5.528;2022-08-19T00:12:36;17.65;;;6.50;;
43160;SDS011;40968;52.342;5.528;2022-08-19T00:15:04;11.25;;;5.85;;
43160;SDS011;40968;52.342;5.528;2022-08-19T00:17:32;14.30;;;6.10;;
43160;SDS011;40968;52.342;5.528;2022-08-19T00:20:00;17.08;;;6.82;;
43160;SDS011;40968;52.342;5.528;2022-08-19T00:22:26;14.43;;;6.22;;
43160;SDS011;40968;52.342;5.528;2022-08-19T00:24:53;13.45;;;5.88;;
43160;SDS011;40968;52.342;5.528;2022-08-19T00:27:20;15.63;;;6.80;;
43160;SDS011;40968;52.342;5.528;2022-08-19T00:29:46;20.00;;;6.82;;
43160;SDS011;40968;52.342;5.528;2022-08-19T00:32:13;13.38;;;6.30;;
43160;SDS011;40968;52.342;5.528;2022-08-19T00:34:39;15.30;;;5.60;;
43160;SDS011;40968;52.342;5.528;2022-08-19T00:37:07;15.18;;;6.72;;
43160;SDS011;40968;52.342;5.528;2022-08-19T00:39:34;13.52;;;5.57;;
43160;SDS011;40968;52.342;5.528;2022-08-19T00:42:00;14.98;;;6.05;;
43160;SDS011;40968;52.342;5.528;2022-08-19T00:44:27;22.10;;;7.38;;
43160;SDS011;40968;52.342;5.528;2022-08-19T00:46:56;15.07;;;5.97;;
43160;SDS011;40968;52.342;5.528;2022-08-19T00:49:25;13.43;;;5.55;;
43160;SDS011;40968;52.342;5.528;2022-08-19T00:51:57;16.92;;;6.32;;
43160;SDS011;40968;52.342;5.528;2022-08-19T00:54:29;18.10;;;6.43;;
43160;SDS011;40968;52.342;5.528;2022-08-19T00:56:58;17.45;;;6.60;;
43160;SDS011;40968;52.342;5.528;2022-08-19T00:59:25;16.08;;;6.38;;
43160;SDS011;40968;52.342;5.528;2022-08-19T01:01:53;17.48;;;7.35;;
43160;SDS011;40968;52.342;5.528;2022-08-19T01:04:20;19.73;;;7.10;;
43160;SDS011;40968;52.342;5.528;2022-08-19T01:06:47;15.05;;;6.78;;
43160;SDS011;40968;52.342;5.528;2022-08-19T01:09:13;16.00;;;7.22;;
43160;SDS011;40968;52.342;5.528;2022-08-19T01:11:41;14.10;;;6.47;;
43160;SDS011;40968;52.342;5.528;2022-08-19T01:14:10;18.35;;;7.53;;
43160;SDS011;40968;52.342;5.528;2022-08-19T01:16:39;17.40;;;7.20;;
43160;SDS011;40968;52.342;5.528;2022-08-19T01:19:09;15.48;;;7.07;;
43160;SDS011;40968;52.342;5.528;2022-08-19T01:21:44;18.00;;;6.85;;
43160;SDS011;40968;52.342;5.528;2022-08-19T01:24:15;18.25;;;7.53;;
43160;SDS011;40968;52.342;5.528;2022-08-19T01:26:43;13.63;;;6.20;;
43160;SDS011;40968;52.342;5.528;2022-08-19T01:29:11;19.80;;;7.68;;
43160;SDS011;40968;52.342;5.528;2022-08-19T01:31:38;16.63;;;6.95;;
43160;SDS011;40968;52.342;5.528;2022-08-19T01:34:06;17.35;;;7.47;;
43160;SDS011;40968;52.342;5.528;2022-08-19T01:36:34;17.85;;;7.10;;
43160;SDS011;40968;52.342;5.528;2022-08-19T01:39:03;17.25;;;7.13;;
43160;SDS011;40968;52.342;5.528;2022-08-19T01:41:34;15.52;;;6.00;;
43160;SDS011;40968;52.342;5.528;2022-08-19T01:44:01;14.35;;;6.85;;
43160;SDS011;40968;52.342;5.528;2022-08-19T01:46:31;14.17;;;6.30;;
43160;SDS011;40968;52.342;5.528;2022-08-19T01:48:58;15.02;;;6.85;;
43160;SDS011;40968;52.342;5.528;2022-08-19T01:51:25;21.63;;;8.20;;
43160;SDS011;40968;52.342;5.528;2022-08-19T01:53:52;16.50;;;6.95;;
43160;SDS011;40968;52.342;5.528;2022-08-19T01:56:19;16.02;;;6.53;;
43160;SDS011;40968;52.342;5.528;2022-08-19T01:58:49;16.73;;;6.55;;
43160;SDS011;40968;52.342;5.528;2022-08-19T02:01:18;14.18;;;6.03;;
43160;SDS011;40968;52.342;5.528;2022-08-19T02:03:45;12.77;;;5.72;;
43160;SDS011;40968;52.342;5.528;2022-08-19T02:06:12;15.32;;;5.80;;
43160;SDS011;40968;52.342;5.528;2022-08-19T02:08:38;20.08;;;7.28;;
43160;SDS011;40968;52.342;5.528;2022-08-19T02:11:06;15.20;;;6.35;;
43160;SDS011;40968;52.342;5.528;2022-08-19T02:13:34;19.20;;;7.65;;
43160;SDS011;40968;52.342;5.528;2022-08-19T02:16:02;18.58;;;6.03;;
43160;SDS011;40968;52.342;5.528;2022-08-19T02:18:29;17.23;;;6.95;;
43160;SDS011;40968;52.342;5.528;2022-08-19T02:20:55;18.30;;;7.45;;
43160;SDS011;40968;52.342;5.528;2022-08-19T02:23:22;20.92;;;7.40;;
43160;SDS011;40968;52.342;5.528;2022-08-19T02:25:48;17.75;;;7.03;;
43160;SDS011;40968;52.342;5.528;2022-08-19T02:28:17;23.95;;;7.47;;
43160;SDS011;40968;52.342;5.528;2022-08-19T02:30:44;13.15;;;5.38;;
43160;SDS011;40968;52.342;5.528;2022-08-19T02:33:12;14.98;;;6.25;;
43160;SDS011;40968;52.342;5.528;2022-08-19T02:35:40;20.08;;;7.22;;
43160;SDS011;40968;52.342;5.528;2022-08-19T02:38:07;17.33;;;7.20;;
43160;SDS011;40968;52.342;5.528;2022-08-19T02:40:53;14.43;;;6.65;;
43160;SDS011;40968;52.342;5.528;2022-08-19T02:43:22;15.38;;;6.07;;
43160;SDS011;40968;52.342;5.528;2022-08-19T02:45:49;11.85;;;5.32;;
43160;SDS011;40968;52.342;5.528;2022-08-19T02:48:18;12.30;;;5.47;;
43160;SDS011;40968;52.342;5.528;2022-08-19T02:50:46;16.00;;;7.38;;
43160;SDS011;40968;52.342;5.528;2022-08-19T02:53:20;19.75;;;7.57;;
43160;SDS011;40968;52.342;5.528;2022-08-19T02:55:48;16.92;;;6.47;;
43160;SDS011;40968;52.342;5.528;2022-08-19T02:58:15;13.75;;;6.45;;
43160;SDS011;40968;52.342;5.528;2022-08-19T03:00:43;20.25;;;7.28;;
43160;SDS011;40968;52.342;5.528;2022-08-19T03:03:10;15.57;;;6.35;;
43160;SDS011;40968;52.342;5.528;2022-08-19T03:05:38;17.73;;;6.63;;
43160;SDS011;40968;52.342;5.528;2022-08-19T03:08:05;16.15;;;7.03;;
43160;SDS011;40968;52.342;5.528;2022-08-19T03:10:32;16.75;;;7.13;;
43160;SDS011;40968;52.342;5.528;2022-08-19T03:12:59;17.98;;;6.80;;
43160;SDS011;40968;52.342;5.528;2022-08-19T03:15:25;14.45;;;6.45;;
43160;SDS011;40968;52.342;5.528;2022-08-19T03:17:52;13.43;;;6.28;;
43160;SDS011;40968;52.342;5.528;2022-08-19T03:20:19;19.20;;;7.63;;
43160;SDS011;40968;52.342;5.528;2022-08-19T03:22:47;16.35;;;7.05;;
43160;SDS011;40968;52.342;5.528;2022-08-19T03:25:13;16.40;;;7.38;;
43160;SDS011;40968;52.342;5.528;2022-08-19T03:27:40;22.50;;;8.43;;
43160;SDS011;40968;52.342;5.528;2022-08-19T03:30:07;14.90;;;6.60;;
43160;SDS011;40968;52.342;5.528;2022-08-19T03:32:34;19.88;;;8.93;;
43160;SDS011;40968;52.342;5.528;2022-08-19T03:35:01;16.23;;;7.65;;
43160;SDS011;40968;52.342;5.528;2022-08-19T03:37:28;19.85;;;8.80;;
43160;SDS011;40968;52.342;5.528;2022-08-19T03:39:56;19.23;;;8.30;;
43160;SDS011;40968;52.342;5.528;2022-08-19T03:42:22;26.13;;;9.43;;
43160;SDS011;40968;52.342;5.528;2022-08-19T03:44:49;19.98;;;8.85;;
43160;SDS011;40968;52.342;5.528;2022-08-19T03:47:17;16.40;;;7.72;;
43160;SDS011;40968;52.342;5.528;2022-08-19T03:49:44;24.52;;;9.60;;
43160;SDS011;40968;52.342;5.528;2022-08-19T03:52:11;22.13;;;9.82;;
43160;SDS011;40968;52.342;5.528;2022-08-19T03:54:38;18.75;;;8.00;;
43160;SDS011;40968;52.342;5.528;2022-08-19T03:57:06;20.17;;;8.93;;
43160;SDS011;40968;52.342;5.528;2022-08-19T03:59:35;23.48;;;9.48;;
43160;SDS011;40968;52.342;5.528;2022-08-19T04:02:05;19.85;;;8.40;;
43160;SDS011;40968;52.342;5.528;2022-08-19T04:04:34;20.13;;;7.95;;
43160;SDS011;40968;52.342;5.528;2022-08-19T04:07:00;17.23;;;7.43;;
43160;SDS011;40968;52.342;5.528;2022-08-19T04:09:27;20.88;;;8.52;;
43160;SDS011;40968;52.342;5.528;2022-08-19T04:11:54;25.20;;;8.93;;
43160;SDS011;40968;52.342;5.528;2022-08-19T04:14:24;25.52;;;11.68;;
43160;SDS011;40968;52.342;5.528;2022-08-19T04:16:53;31.25;;;11.55;;
43160;SDS011;40968;52.342;5.528;2022-08-19T04:19:19;29.85;;;10.80;;
43160;SDS011;40968;52.342;5.528;2022-08-19T04:21:47;25.92;;;10.80;;
43160;SDS011;40968;52.342;5.528;2022-08-19T04:24:16;23.15;;;9.98;;
43160;SDS011;40968;52.342;5.528;2022-08-19T04:26:43;26.15;;;10.38;;
43160;SDS011;40968;52.342;5.528;2022-08-19T04:29:11;22.73;;;7.78;;
43160;SDS011;40968;52.342;5.528;2022-08-19T04:31:42;22.75;;;9.18;;
43160;SDS011;40968;52.342;5.528;2022-08-19T04:34:10;30.52;;;10.90;;
43160;SDS011;40968;52.342;5.528;2022-08-19T04:36:39;29.17;;;12.10;;
43160;SDS011;40968;52.342;5.528;2022-08-19T04:39:08;27.42;;;10.80;;
43160;SDS011;40968;52.342;5.528;2022-08-19T04:41:37;27.13;;;9.98;;
43160;SDS011;40968;52.342;5.528;2022-08-19T04:44:22;23.42;;;9.75;;
43160;SDS011;40968;52.342;5.528;2022-08-19T04:46:50;27.42;;;10.85;;
43160;SDS011;40968;52.342;5.528;2022-08-19T04:49:18;26.70;;;10.38;;
43160;SDS011;40968;52.342;5.528;2022-08-19T04:51:46;26.48;;;10.68;;
43160;SDS011;40968;52.342;5.528;2022-08-19T04:54:14;35.10;;;13.05;;
43160;SDS011;40968;52.342;5.528;2022-08-19T04:56:41;24.63;;;9.70;;
43160;SDS011;40968;52.342;5.528;2022-08-19T04:59:08;33.83;;;13.07;;
43160;SDS011;40968;52.342;5.528;2022-08-19T05:01:35;24.42;;;9.48;;
43160;SDS011;40968;52.342;5.528;2022-08-19T05:04:04;23.88;;;9.75;;
43160;SDS011;40968;52.342;5.528;2022-08-19T05:06:32;17.27;;;7.82;;
43160;SDS011;40968;52.342;5.528;2022-08-19T05:09:00;20.83;;;9.00;;
43160;SDS011;40968;52.342;5.528;2022-08-19T05:11:27;30.10;;;11.95;;
43160;SDS011;40968;52.342;5.528;2022-08-19T05:13:55;20.65;;;8.63;;
43160;SDS011;40968;52.342;5.528;2022-08-19T05:16:23;30.08;;;11.18;;
43160;SDS011;40968;52.342;5.528;2022-08-19T05:18:50;32.63;;;11.40;;
43160;SDS011;40968;52.342;5.528;2022-08-19T05:21:37;26.17;;;11.07;;
43160;SDS011;40968;52.342;5.528;2022-08-19T05:24:23;31.45;;;11.93;;
43160;SDS011;40968;52.342;5.528;2022-08-19T05:26:51;29.75;;;12.02;;
43160;SDS011;40968;52.342;5.528;2022-08-19T05:29:21;34.25;;;12.90;;
43160;SDS011;40968;52.342;5.528;2022-08-19T05:31:49;31.95;;;12.85;;
43160;SDS011;40968;52.342;5.528;2022-08-19T05:34:17;29.63;;;12.07;;
43160;SDS011;40968;52.342;5.528;2022-08-19T05:36:48;31.90;;;12.90;;
43160;SDS011;40968;52.342;5.528;2022-08-19T05:39:17;33.83;;;14.15;;
43160;SDS011;40968;52.342;5.528;2022-08-19T05:41:46;32.63;;;13.02;;
43160;SDS011;40968;52.342;5.528;2022-08-19T05:44:15;35.13;;;13.15;;
43160;SDS011;40968;52.342;5.528;2022-08-19T05:46:43;28.08;;;12.13;;
43160;SDS011;40968;52.342;5.528;2022-08-19T05:49:12;30.80;;;13.25;;
43160;SDS011;40968;52.342;5.528;2022-08-19T05:51:40;28.13;;;11.35;;
43160;SDS011;40968;52.342;5.528;2022-08-19T05:54:08;34.95;;;12.93;;
43160;SDS011;40968;52.342;5.528;2022-08-19T05:56:36;32.20;;;13.48;;
43160;SDS011;40968;52.342;5.528;2022-08-19T05:59:03;33.90;;;12.98;;
43160;SDS011;40968;52.342;5.528;2022-08-19T06:01:36;31.33;;;11.73;;
43160;SDS011;40968;52.342;5.528;2022-08-19T06:04:04;38.35;;;14.05;;
43160;SDS011;40968;52.342;5.528;2022-08-19T06:06:31;42.38;;;16.17;;
43160;SDS011;40968;52.342;5.528;2022-08-19T06:08:59;48.22;;;15.30;;
43160;SDS011;40968;52.342;5.528;2022-08-19T06:11:33;38.58;;;15.13;;
43160;SDS011;40968;52.342;5.528;2022-08-19T06:14:02;42.22;;;15.48;;
43160;SDS011;40968;52.342;5.528;2022-08-19T06:16:30;45.70;;;15.10;;
43160;SDS011;40968;52.342;5.528;2022-08-19T06:19:00;38.75;;;14.48;;
43160;SDS011;40968;52.342;5.528;2022-08-19T06:21:28;44.38;;;16.23;;
43160;SDS011;40968;52.342;5.528;2022-08-19T06:23:56;42.35;;;15.70;;
43160;SDS011;40968;52.342;5.528;2022-08-19T06:26:23;43.95;;;15.38;;
43160;SDS011;40968;52.342;5.528;2022-08-19T06:28:52;62.97;;;19.05;;
43160;SDS011;40968;52.342;5.528;2022-08-19T06:31:20;55.40;;;18.63;;
43160;SDS011;40968;52.342;5.528;2022-08-19T06:33:50;53.72;;;18.80;;
43160;SDS011;40968;52.342;5.528;2022-08-19T06:36:17;59.38;;;19.40;;
43160;SDS011;40968;52.342;5.528;2022-08-19T06:38:45;52.55;;;18.02;;
43160;SDS011;40968;52.342;5.528;2022-08-19T06:41:12;50.20;;;18.60;;
43160;SDS011;40968;52.342;5.528;2022-08-19T06:43:39;64.97;;;20.42;;
43160;SDS011;40968;52.342;5.528;2022-08-19T06:46:11;45.83;;;15.82;;
43160;SDS011;40968;52.342;5.528;2022-08-19T06:48:39;60.50;;;20.15;;
43160;SDS011;40968;52.342;5.528;2022-08-19T06:51:05;66.60;;;21.42;;
43160;SDS011;40968;52.342;5.528;2022-08-19T06:53:32;61.97;;;21.00;;
43160;SDS011;40968;52.342;5.528;2022-08-19T06:55:59;72.82;;;23.42;;
43160;SDS011;40968;52.342;5.528;2022-08-19T06:58:27;73.03;;;21.70;;
43160;SDS011;40968;52.342;5.528;2022-08-19T07:00:57;75.32;;;21.77;;
43160;SDS011;40968;52.342;5.528;2022-08-19T07:03:27;79.18;;;24.08;;
43160;SDS011;40968;52.342;5.528;2022-08-19T07:05:55;68.32;;;23.02;;
43160;SDS011;40968;52.342;5.528;2022-08-19T07:08:22;66.07;;;23.02;;
43160;SDS011;40968;52.342;5.528;2022-08-19T07:10:52;77.72;;;25.55;;
43160;SDS011;40968;52.342;5.528;2022-08-19T07:13:18;93.00;;;27.05;;
43160;SDS011;40968;52.342;5.528;2022-08-19T07:15:46;80.72;;;25.05;;
43160;SDS011;40968;52.342;5.528;2022-08-19T07:18:14;83.78;;;26.10;;
43160;SDS011;40968;52.342;5.528;2022-08-19T07:20:42;91.35;;;26.48;;
43160;SDS011;40968;52.342;5.528;2022-08-19T07:23:09;95.63;;;29.45;;
43160;SDS011;40968;52.342;5.528;2022-08-19T07:25:36;99.35;;;29.13;;
43160;SDS011;40968;52.342;5.528;2022-08-19T07:28:03;93.88;;;30.35;;
43160;SDS011;40968;52.342;5.528;2022-08-19T07:30:36;104.50;;;31.98;;
43160;SDS011;40968;52.342;5.528;2022-08-19T07:33:05;112.43;;;33.80;;
43160;SDS011;40968;52.342;5.528;2022-08-19T07:35:32;109.55;;;33.58;;
43160;SDS011;40968;52.342;5.528;2022-08-19T07:38:00;109.32;;;34.75;;
43160;SDS011;40968;52.342;5.528;2022-08-19T07:40:29;113.82;;;36.05;;
43160;SDS011;40968;52.342;5.528;2022-08-19T07:42:56;120.88;;;34.17;;
43160;SDS011;40968;52.342;5.528;2022-08-19T07:45:22;112.47;;;35.55;;
43160;SDS011;40968;52.342;5.528;2022-08-19T07:47:49;111.03;;;35.08;;
43160;SDS011;40968;52.342;5.528;2022-08-19T07:50:16;121.95;;;35.63;;
43160;SDS011;40968;52.342;5.528;2022-08-19T07:52:44;118.43;;;34.22;;
43160;SDS011;40968;52.342;5.528;2022-08-19T07:55:14;121.45;;;35.58;;
43160;SDS011;40968;52.342;5.528;2022-08-19T07:57:40;109.85;;;34.00;;
43160;SDS011;40968;52.342;5.528;2022-08-19T08:00:07;107.53;;;34.58;;
43160;SDS011;40968;52.342;5.528;2022-08-19T08:02:34;110.75;;;31.27;;
43160;SDS011;40968;52.342;5.528;2022-08-19T08:05:01;115.95;;;31.83;;
43160;SDS011;40968;52.342;5.528;2022-08-19T08:07:45;106.75;;;32.88;;
43160;SDS011;40968;52.342;5.528;2022-08-19T08:10:31;103.32;;;29.67;;
43160;SDS011;40968;52.342;5.528;2022-08-19T08:12:57;100.40;;;29.02;;
43160;SDS011;40968;52.342;5.528;2022-08-19T08:15:24;91.13;;;29.13;;
43160;SDS011;40968;52.342;5.528;2022-08-19T08:17:51;101.85;;;29.20;;
43160;SDS011;40968;52.342;5.528;2022-08-19T08:20:18;99.28;;;27.27;;
43160;SDS011;40968;52.342;5.528;2022-08-19T08:22:46;88.85;;;25.88;;
43160;SDS011;40968;52.342;5.528;2022-08-19T08:25:32;98.50;;;29.38;;
43160;SDS011;40968;52.342;5.528;2022-08-19T08:28:00;89.07;;;27.45;;
43160;SDS011;40968;52.342;5.528;2022-08-19T08:30:28;94.72;;;28.60;;
43160;SDS011;40968;52.342;5.528;2022-08-19T08:32:57;92.95;;;28.98;;
43160;SDS011;40968;52.342;5.528;2022-08-19T08:35:23;93.22;;;28.77;;
43160;SDS011;40968;52.342;5.528;2022-08-19T08:37:51;99.70;;;29.50;;
43160;SDS011;40968;52.342;5.528;2022-08-19T08:40:22;83.47;;;26.90;;
43160;SDS011;40968;52.342;5.528;2022-08-19T08:42:57;93.32;;;28.55;;
43160;SDS011;40968;52.342;5.528;2022-08-19T08:45:27;101.38;;;27.83;;
43160;SDS011;40968;52.342;5.528;2022-08-19T08:47:56;97.85;;;28.70;;
43160;SDS011;40968;52.342;5.528;2022-08-19T08:50:29;94.47;;;27.55;;
43160;SDS011;40968;52.342;5.528;2022-08-19T08:53:01;84.65;;;27.30;;
43160;SDS011;40968;52.342;5.528;2022-08-19T08:55:30;90.32;;;27.65;;
43160;SDS011;40968;52.342;5.528;2022-08-19T08:57:59;84.57;;;27.55;;
43160;SDS011;40968;52.342;5.528;2022-08-19T09:00:29;89.95;;;27.02;;
43160;SDS011;40968;52.342;5.528;2022-08-19T09:02:58;103.25;;;28.45;;
43160;SDS011;40968;52.342;5.528;2022-08-19T09:05:27;119.70;;;33.88;;
43160;SDS011;40968;52.342;5.528;2022-08-19T09:08:04;95.70;;;28.58;;
43160;SDS011;40968;52.342;5.528;2022-08-19T09:10:36;93.22;;;28.30;;
43160;SDS011;40968;52.342;5.528;2022-08-19T09:13:10;100.68;;;29.58;;
43160;SDS011;40968;52.342;5.528;2022-08-19T09:15:42;88.40;;;26.70;;
43160;SDS011;40968;52.342;5.528;2022-08-19T09:18:13;77.00;;;23.90;;
43160;SDS011;40968;52.342;5.528;2022-08-19T09:20:41;85.32;;;27.13;;
43160;SDS011;40968;52.342;5.528;2022-08-19T09:23:08;94.03;;;27.05;;
43160;SDS011;40968;52.342;5.528;2022-08-19T09:25:36;95.57;;;28.52;;
43160;SDS011;40968;52.342;5.528;2022-08-19T09:28:05;97.65;;;26.58;;
43160;SDS011;40968;52.342;5.528;2022-08-19T09:30:34;98.45;;;28.02;;
43160;SDS011;40968;52.342;5.528;2022-08-19T09:33:06;87.38;;;26.50;;
43160;SDS011;40968;52.342;5.528;2022-08-19T09:35:33;78.55;;;26.13;;
43160;SDS011;40968;52.342;5.528;2022-08-19T09:38:00;85.07;;;26.65;;
43160;SDS011;40968;52.342;5.528;2022-08-19T09:40:27;91.78;;;27.85;;
43160;SDS011;40968;52.342;5.528;2022-08-19T09:42:54;91.05;;;26.85;;
43160;SDS011;40968;52.342;5.528;2022-08-19T09:45:22;85.35;;;26.75;;
43160;SDS011;40968;52.342;5.528;2022-08-19T09:47:51;72.82;;;22.70;;
43160;SDS011;40968;52.342;5.528;2022-08-19T09:50:19;91.13;;;25.05;;
43160;SDS011;40968;52.342;5.528;2022-08-19T09:52:45;78.05;;;24.85;;
43160;SDS011;40968;52.342;5.528;2022-08-19T09:55:12;74.65;;;24.75;;
43160;SDS011;40968;52.342;5.528;2022-08-19T09:57:40;79.57;;;25.45;;
43160;SDS011;40968;52.342;5.528;2022-08-19T10:00:08;75.45;;;25.15;;
43160;SDS011;40968;52.342;5.528;2022-08-19T10:02:35;76.53;;;23.83;;
43160;SDS011;40968;52.342;5.528;2022-08-19T10:05:03;77.35;;;24.75;;
43160;SDS011;40968;52.342;5.528;2022-08-19T10:07:53;83.65;;;26.10;;
43160;SDS011;40968;52.342;5.528;2022-08-19T10:10:20;78.80;;;25.90;;
43160;SDS011;40968;52.342;5.528;2022-08-19T10:12:46;93.18;;;25.52;;
43160;SDS011;40968;52.342;5.528;2022-08-19T10:15:13;79.45;;;23.75;;
43160;SDS011;40968;52.342;5.528;2022-08-19T10:17:41;75.43;;;23.67;;
43160;SDS011;40968;52.342;5.528;2022-08-19T10:20:09;60.70;;;21.10;;
43160;SDS011;40968;52.342;5.528;2022-08-19T10:22:36;75.53;;;23.05;;
43160;SDS011;40968;52.342;5.528;2022-08-19T10:25:04;77.80;;;24.20;;
43160;SDS011;40968;52.342;5.528;2022-08-19T10:27:32;81.47;;;23.17;;
43160;SDS011;40968;52.342;5.528;2022-08-19T10:29:58;58.05;;;20.58;;
43160;SDS011;40968;52.342;5.528;2022-08-19T10:32:25;63.60;;;20.48;;
43160;SDS011;40968;52.342;5.528;2022-08-19T10:34:52;61.60;;;21.33;;
43160;SDS011;40968;52.342;5.528;2022-08-19T10:37:20;58.13;;;19.98;;
43160;SDS011;40968;52.342;5.528;2022-08-19T10:39:47;70.60;;;20.92;;
43160;SDS011;40968;52.342;5.528;2022-08-19T10:42:13;67.82;;;20.73;;
43160;SDS011;40968;52.342;5.528;2022-08-19T10:44:41;63.97;;;22.25;;
43160;SDS011;40968;52.342;5.528;2022-08-19T10:47:09;59.67;;;19.58;;
43160;SDS011;40968;52.342;5.528;2022-08-19T10:49:36;55.53;;;18.63;;
43160;SDS011;40968;52.342;5.528;2022-08-19T10:52:24;57.38;;;20.63;;
43160;SDS011;40968;52.342;5.528;2022-08-19T10:54:58;56.33;;;17.98;;
43160;SDS011;40968;52.342;5.528;2022-08-19T10:57:43;51.60;;;18.52;;
43160;SDS011;40968;52.342;5.528;2022-08-19T11:00:10;53.92;;;19.52;;
43160;SDS011;40968;52.342;5.528;2022-08-19T11:02:39;60.35;;;20.13;;
43160;SDS011;40968;52.342;5.528;2022-08-19T11:05:06;49.92;;;19.75;;
43160;SDS011;40968;52.342;5.528;2022-08-19T11:07:37;54.53;;;20.20;;
43160;SDS011;40968;52.342;5.528;2022-08-19T11:10:04;49.20;;;19.30;;
43160;SDS011;40968;52.342;5.528;2022-08-19T11:12:32;52.47;;;19.67;;
43160;SDS011;40968;52.342;5.528;2022-08-19T11:14:59;52.42;;;19.52;;
43160;SDS011;40968;52.342;5.528;2022-08-19T11:17:25;51.72;;;19.25;;
43160;SDS011;40968;52.342;5.528;2022-08-19T11:19:53;64.50;;;20.88;;
43160;SDS011;40968;52.342;5.528;2022-08-19T11:22:20;49.30;;;18.83;;
43160;SDS011;40968;52.342;5.528;2022-08-19T11:24:48;61.35;;;19.45;;
43160;SDS011;40968;52.342;5.528;2022-08-19T11:27:16;53.67;;;19.17;;
43160;SDS011;40968;52.342;5.528;2022-08-19T11:29:43;55.70;;;19.42;;
43160;SDS011;40968;52.342;5.528;2022-08-19T11:32:10;47.30;;;17.80;;
43160;SDS011;40968;52.342;5.528;2022-08-19T11:34:38;55.58;;;18.65;;
43160;SDS011;40968;52.342;5.528;2022-08-19T11:37:05;53.75;;;19.35;;
43160;SDS011;40968;52.342;5.528;2022-08-19T11:39:34;46.30;;;18.73;;
43160;SDS011;40968;52.342;5.528;2022-08-19T11:42:04;45.60;;;17.58;;
43160;SDS011;40968;52.342;5.528;2022-08-19T11:44:52;51.53;;;18.40;;
43160;SDS011;40968;52.342;5.528;2022-08-19T11:47:19;49.28;;;17.20;;
43160;SDS011;40968;52.342;5.528;2022-08-19T11:49:47;49.25;;;17.75;;
43160;SDS011;40968;52.342;5.528;2022-08-19T11:52:14;51.08;;;18.55;;
43160;SDS011;40968;52.342;5.528;2022-08-19T11:54:41;49.28;;;18.55;;
43160;SDS011;40968;52.342;5.528;2022-08-19T11:57:10;44.72;;;18.65;;
43160;SDS011;40968;52.342;5.528;2022-08-19T11:59:37;44.65;;;17.10;;
43160;SDS011;40968;52.342;5.528;2022-08-19T12:02:04;43.13;;;17.50;;
43160;SDS011;40968;52.342;5.528;2022-08-19T12:04:31;41.65;;;16.90;;
43160;SDS011;40968;52.342;5.528;2022-08-19T12:06:58;47.10;;;16.83;;
43160;SDS011;40968;52.342;5.528;2022-08-19T12:09:26;48.92;;;17.63;;
43160;SDS011;40968;52.342;5.528;2022-08-19T12:11:53;53.70;;;19.63;;
43160;SDS011;40968;52.342;5.528;2022-08-19T12:14:22;49.42;;;18.13;;
43160;SDS011;40968;52.342;5.528;2022-08-19T12:16:49;49.53;;;17.58;;
43160;SDS011;40968;52.342;5.528;2022-08-19T12:19:16;42.75;;;17.80;;
43160;SDS011;40968;52.342;5.528;2022-08-19T12:21:42;51.30;;;19.20;;
43160;SDS011;40968;52.342;5.528;2022-08-19T12:24:09;48.13;;;17.67;;
43160;SDS011;40968;52.342;5.528;2022-08-19T12:26:36;40.00;;;17.48;;
43160;SDS011;40968;52.342;5.528;2022-08-19T12:29:03;45.13;;;18.15;;
43160;SDS011;40968;52.342;5.528;2022-08-19T12:31:31;43.45;;;17.40;;
43160;SDS011;40968;52.342;5.528;2022-08-19T12:33:58;35.65;;;14.52;;
43160;SDS011;40968;52.342;5.528;2022-08-19T12:36:27;48.45;;;15.00;;
43160;SDS011;40968;52.342;5.528;2022-08-19T12:38:54;35.13;;;12.88;;
43160;SDS011;40968;52.342;5.528;2022-08-19T12:41:20;34.72;;;11.18;;
43160;SDS011;40968;52.342;5.528;2022-08-19T12:43:48;33.67;;;12.35;;
43160;SDS011;40968;52.342;5.528;2022-08-19T12:46:15;33.40;;;13.27;;
43160;SDS011;40968;52.342;5.528;2022-08-19T12:48:43;29.73;;;11.70;;
43160;SDS011;40968;52.342;5.528;2022-08-19T12:51:12;28.88;;;11.88;;
43160;SDS011;40968;52.342;5.528;2022-08-19T12:53:40;31.83;;;12.57;;
43160;SDS011;40968;52.342;5.528;2022-08-19T12:56:08;33.53;;;11.32;;
43160;SDS011;40968;52.342;5.528;2022-08-19T12:58:36;25.30;;;10.38;;
43160;SDS011;40968;52.342;5.528;2022-08-19T13:01:05;30.60;;;12.02;;
43160;SDS011;40968;52.342;5.528;2022-08-19T13:06:01;38.13;;;15.35;;
43160;SDS011;40968;52.342;5.528;2022-08-19T13:08:27;44.08;;;16.13;;
43160;SDS011;40968;52.342;5.528;2022-08-19T13:10:54;39.63;;;16.30;;
43160;SDS011;40968;52.342;5.528;2022-08-19T13:13:21;39.55;;;15.43;;
43160;SDS011;40968;52.342;5.528;2022-08-19T13:15:47;33.53;;;14.95;;
43160;SDS011;40968;52.342;5.528;2022-08-19T13:18:14;42.83;;;15.35;;
43160;SDS011;40968;52.342;5.528;2022-08-19T13:20:40;33.63;;;13.82;;
43160;SDS011;40968;52.342;5.528;2022-08-19T13:23:09;29.17;;;12.77;;
43160;SDS011;40968;52.342;5.528;2022-08-19T13:25:36;33.42;;;13.35;;
43160;SDS011;40968;52.342;5.528;2022-08-19T13:28:02;32.55;;;13.27;;
43160;SDS011;40968;52.342;5.528;2022-08-19T13:30:31;32.50;;;13.07;;
43160;SDS011;40968;52.342;5.528;2022-08-19T13:33:16;33.83;;;13.52;;
43160;SDS011;40968;52.342;5.528;2022-08-19T13:35:45;36.15;;;14.60;;
43160;SDS011;40968;52.342;5.528;2022-08-19T13:38:16;28.40;;;11.80;;
43160;SDS011;40968;52.342;5.528;2022-08-19T13:40:44;31.48;;;12.70;;
43160;SDS011;40968;52.342;5.528;2022-08-19T13:43:11;30.35;;;12.85;;
43160;SDS011;40968;52.342;5.528;2022-08-19T13:45:39;28.38;;;11.70;;
43160;SDS011;40968;52.342;5.528;2022-08-19T13:48:06;33.13;;;13.68;;
43160;SDS011;40968;52.342;5.528;2022-08-19T13:50:35;35.28;;;13.45;;
43160;SDS011;40968;52.342;5.528;2022-08-19T13:53:05;30.10;;;12.52;;
43160;SDS011;40968;52.342;5.528;2022-08-19T13:55:33;34.33;;;12.70;;
43160;SDS011;40968;52.342;5.528;2022-08-19T13:58:01;29.58;;;12.07;;
43160;SDS011;40968;52.342;5.528;2022-08-19T14:00:28;24.58;;;10.88;;
43160;SDS011;40968;52.342;5.528;2022-08-19T14:02:56;23.50;;;9.98;;
43160;SDS011;40968;52.342;5.528;2022-08-19T14:05:23;22.95;;;8.73;;
43160;SDS011;40968;52.342;5.528;2022-08-19T14:07:51;32.78;;;10.90;;
43160;SDS011;40968;52.342;5.528;2022-08-19T14:10:18;25.05;;;10.35;;
43160;SDS011;40968;52.342;5.528;2022-08-19T14:12:47;22.63;;;9.77;;
43160;SDS011;40968;52.342;5.528;2022-08-19T14:15:14;33.65;;;11.23;;
43160;SDS011;40968;52.342;5.528;2022-08-19T14:17:42;32.45;;;12.38;;
43160;SDS011;40968;52.342;5.528;2022-08-19T14:20:11;33.13;;;10.48;;
43160;SDS011;40968;52.342;5.528;2022-08-19T14:22:40;13.75;;;5.72;;
43160;SDS011;40968;52.342;5.528;2022-08-19T14:25:08;14.85;;;4.55;;
43160;SDS011;40968;52.342;5.528;2022-08-19T14:27:37;9.43;;;4.65;;
43160;SDS011;40968;52.342;5.528;2022-08-19T14:30:08;8.77;;;3.83;;
43160;SDS011;40968;52.342;5.528;2022-08-19T14:32:36;10.27;;;4.03;;
43160;SDS011;40968;52.342;5.528;2022-08-19T14:35:03;9.93;;;3.58;;